Latest Weather Observations for Nhill Aerodrome

IDV60801

Issued at 8:02 am EDT Friday 22 October 2021 (issued every 10 minutes, with the page automatically refreshed every 10 minutes)

About weather observations | Map of weather stations | Latest weather observations for VIC | Other Formats
Station Details ID: 078015 Name: NHILL AERODROME Lat: -36.31 Lon: 141.65 Height: 138.9 m
Data from the previous 72 hours. | See also: Recent months at Nhill Aerodrome
Date/Time
EDT
Temp
°C
App
Temp
°C
Dew
Point
°C
Rel
Hum
%
Delta-T
°C
Wind Press
QNH
hPa
Press
MSL
hPa
Rain since
9am
mm
Dir  Spd
km/h
Gust
km/h
Spd
kts
Gust
kts
22/08:00am 12.7 11.7 12.2 97 0.3 S 9 15 5 8 1013.7 1013.5 0.0
22/07:30am 11.4 10.1 11.1 98 0.2 S 9 13 5 7 1013.6 1013.4 0.0
22/07:00am 10.5 8.5 10.0 97 0.3 S 11 13 6 7 1013.5 1013.3 0.0
22/06:30am 10.6 8.6 10.1 97 0.3 SSW 11 13 6 7 1013.5 1013.3 0.0
22/06:00am 11.0 9.1 10.5 97 0.3 S 11 13 6 7 1013.2 1013.0 0.0
22/05:30am 10.8 8.8 10.0 95 0.4 SSE 11 13 6 7 1013.0 1012.9 0.0
22/05:00am 11.1 9.1 10.3 95 0.4 S 11 13 6 7 1012.9 1012.8 0.0
22/04:30am 12.0 9.9 11.1 94 0.5 S 13 15 7 8 1013.0 1012.9 0.0
22/04:00am 12.2 9.7 11.1 93 0.6 S 15 17 8 9 1012.9 1012.8 0.0
22/03:30am 12.4 9.9 11.1 92 0.7 SSE 15 19 8 10 1013.2 1013.0 0.0
22/03:00am 12.4 9.9 11.1 92 0.7 S 15 20 8 11 1013.2 1013.0 0.0
22/02:30am 12.5 10.0 10.9 90 0.8 S 15 17 8 9 1013.4 1013.2 0.0
22/02:00am 12.7 9.8 10.9 89 0.9 S 17 20 9 11 1013.9 1013.7 0.0
22/01:30am 12.6 10.0 10.8 89 0.9 S 15 19 8 10 1014.2 1014.0 0.0
22/01:00am 12.4 10.1 10.6 89 0.9 SSW 13 17 7 9 1014.4 1014.2 0.0
22/12:30am 12.8 10.6 10.7 87 1.1 SSW 13 17 7 9 1014.7 1014.5 0.0
22/12:00am 13.0 11.2 10.7 86 1.2 S 11 15 6 8 1014.7 1014.5 0.0
 
Date/Time
EDT
Temp
°C
App
Temp
°C
Dew
Point
°C
Rel
Hum
%
Delta-T
°C
Wind Press
QNH
hPa
Press
MSL
hPa
Rain since
9am
mm
Dir  Spd
km/h
Gust
km/h
Spd
kts
Gust
kts
21/11:30pm 13.7 11.2 10.9 83 1.5 SSW 15 20 8 11 1014.7 1014.5 0.0
21/11:00pm 14.0 11.9 11.0 82 1.6 SW 13 17 7 9 1014.7 1014.5 0.0
21/10:30pm 13.7 11.5 10.9 83 1.5 SSW 13 15 7 8 1014.7 1014.5 0.0
21/10:00pm 14.7 12.6 11.1 79 1.9 SSW 13 15 7 8 1014.3 1014.1 0.0
21/09:30pm 16.5 14.0 11.2 71 2.9 SW 15 19 8 10 1013.9 1013.7 0.0
21/09:00pm 17.7 14.4 11.0 65 3.6 SW 19 22 10 12 1013.5 1013.3 0.0
21/08:30pm 18.5 15.5 10.6 60 4.3 SSW 17 20 9 11 1012.7 1012.6 0.0
21/08:00pm 20.1 17.1 10.8 55 5.1 SW 17 22 9 12 1012.2 1012.1 0.0
21/07:30pm 22.2 18.9 9.7 45 6.8 WSW 17 22 9 12 1011.8 1011.7 0.0
21/07:00pm 23.3 18.9 10.4 44 7.1 SW 24 32 13 17 1011.6 1011.5 0.0
21/06:30pm 24.1 19.5 11.1 44 7.3 WSW 26 33 14 18 1011.2 1011.1 0.0
21/06:00pm 25.0 21.0 11.9 44 7.5 WSW 24 30 13 16 1010.7 1010.6 0.0
21/05:30pm 24.7 21.1 10.6 41 7.9 SW 20 24 11 13 1010.5 1010.4 0.0
21/05:00pm 24.3 20.9 11.3 44 7.4 WSW 20 26 11 14 1010.4 1010.3 0.0
21/04:30pm 24.0 20.4 11.7 46 7.0 SW 22 32 12 17 1010.5 1010.4 0.0
21/04:00pm 24.6 20.7 9.3 38 8.4 WSW 20 26 11 14 1010.5 1010.4 0.0
21/03:30pm 24.6 20.0 8.1 35 8.8 W 22 28 12 15 1010.5 1010.4 0.0
21/03:00pm 25.0 20.8 8.1 34 9.1 WNW 20 28 11 15 1010.6 1010.5 0.0
21/02:30pm 25.3 21.7 8.3 34 9.2 W 17 24 9 13 1010.9 1010.8 0.0
21/02:00pm 24.8 20.9 7.0 32 9.4 WNW 17 24 9 13 1011.0 1010.9 0.0
21/01:30pm 24.7 20.5 5.5 29 9.8 NW 17 24 9 13 1011.1 1011.0 0.0
21/01:00pm 24.5 20.0 6.3 31 9.4 NW 19 28 10 15 1011.2 1011.1 0.0
21/12:30pm 24.8 21.1 6.1 30 9.7 NNW 15 24 8 13 1011.4 1011.3 0.0
21/12:00pm 23.6 20.0 6.8 34 8.7 NNW 15 22 8 12 1011.7 1011.6 0.0
21/11:30am 22.7 20.0 8.8 41 7.5 N 13 24 7 13 1012.1 1012.0 0.0
21/11:00am 22.5 19.0 8.6 41 7.4 N 17 26 9 14 1012.3 1012.2 0.0
21/10:30am 22.1 18.6 8.6 42 7.2 N 17 30 9 16 1012.4 1012.3 0.0
21/10:00am 20.5 17.2 8.2 45 6.4 N 15 22 8 12 1012.4 1012.3 0.0
21/09:30am 19.9 16.8 8.9 49 5.8 N 15 20 8 11 1012.6 1012.5 0.0
21/09:00am 18.9 16.4 8.3 50 5.5 N 11 20 6 11 1012.6 1012.5 0.0
21/08:30am 16.7 14.6 8.4 58 4.3 N 9 13 5 7 1012.7 1012.6 0.0
21/08:00am 15.4 13.7 8.2 62 3.7 NNW 7 11 4 6 1012.6 1012.5 0.0
21/07:30am 15.3 11.6 7.8 61 3.8 NNW 17 30 9 16 1012.3 1012.2 0.0
21/07:00am 14.8 12.1 7.4 61 3.7 NE 11 17 6 9 1011.6 1011.5 0.0
21/06:30am 15.3 12.2 7.1 58 4.1 NE 13 20 7 11 1011.2 1011.1 0.0
21/06:00am 15.6 11.7 6.9 56 4.3 NE 17 22 9 12 1011.1 1011.0 0.0
21/05:30am 15.2 11.6 6.7 57 4.2 NE 15 22 8 12 1011.1 1011.0 0.0
21/05:00am 16.0 12.7 6.2 52 4.8 NE 13 20 7 11 1011.1 1011.0 0.0
21/04:30am 16.6 14.0 5.9 49 5.2 NNE 9 15 5 8 1011.2 1011.1 0.0
21/04:00am 17.1 14.4 5.7 47 5.6 NNE 9 15 5 8 1011.2 1011.1 0.0
21/03:30am 17.6 14.9 5.5 45 5.9 NNE 9 17 5 9 1011.4 1011.3 0.0
21/03:00am 17.5 14.8 5.4 45 5.9 N 9 15 5 8 1011.5 1011.4 0.0
21/02:30am 17.5 14.3 5.1 44 6.0 NE 11 19 6 10 1011.4 1011.3 0.0
21/02:00am 17.8 14.5 4.7 42 6.3 NE 11 19 6 10 1011.6 1011.5 0.0
21/01:30am 17.8 14.0 4.0 40 6.5 NE 13 17 7 9 1011.7 1011.6 0.0
21/01:00am 18.2 15.1 3.7 38 6.9 NE 9 15 5 8 1012.0 1011.9 0.0
21/12:30am 18.6 15.4 3.3 36 7.2 NNE 9 15 5 8 1012.0 1011.9 0.0
21/12:00am 18.8 15.6 3.0 35 7.4 NNE 9 13 5 7 1012.3 1012.2 0.0
 
Date/Time
EDT
Temp
°C
App
Temp
°C
Dew
Point
°C
Rel
Hum
%
Delta-T
°C
Wind Press
QNH
hPa
Press
MSL
hPa
Rain since
9am
mm
Dir  Spd
km/h
Gust
km/h
Spd
kts
Gust
kts
20/11:30pm 19.4 15.8 2.7 33 7.8 NNE 11 17 6 9 1012.4 1012.3 0.0
20/11:00pm 19.5 15.9 2.8 33 7.8 NNE 11 19 6 10 1012.5 1012.4 0.0
20/10:30pm 19.9 15.9 2.7 32 8.1 NNE 13 17 7 9 1012.7 1012.6 0.0
20/10:00pm 19.8 15.8 2.6 32 8.0 NE 13 20 7 11 1012.8 1012.7 0.0
20/09:30pm 20.0 15.2 2.4 31 8.2 NE 17 24 9 13 1012.5 1012.4 0.0
20/09:00pm 20.2 15.8 2.5 31 8.3 NE 15 24 8 13 1012.6 1012.5 0.0
20/08:30pm 20.1 15.4 3.3 33 8.0 NE 17 22 9 12 1012.6 1012.5 0.0
20/08:00pm 20.0 16.5 3.3 33 7.9 NE 11 17 6 9 1012.9 1012.8 0.0
20/07:30pm 21.0 17.4 3.2 31 8.5 NE 11 15 6 8 1013.2 1013.0 0.0
20/07:00pm 22.4 18.7 2.5 27 9.5 NE 11 20 6 11 1013.3 1013.1 0.0
20/06:30pm 23.1 19.1 3.1 27 9.7 NE 13 20 7 11 1013.0 1012.9 0.0
20/06:00pm 23.5 18.7 2.4 25 10.1 NE 17 26 9 14 1012.9 1012.8 0.0
20/05:30pm 24.1 18.9 2.3 24 10.5 NE 19 30 10 16 1012.4 1012.3 0.0
20/05:00pm 24.9 19.5 2.4 23 10.9 NE 20 39 11 21 1012.3 1012.2 0.0
20/04:30pm 24.7 19.4 2.8 24 10.7 NE 20 41 11 22 1012.4 1012.3 0.0
20/04:00pm 24.3 18.4 1.9 23 10.7 NE 22 43 12 23 1012.7 1012.6 0.0
20/03:30pm 24.7 19.6 3.9 26 10.3 NNE 20 33 11 18 1013.2 1013.0 0.0
20/03:00pm 23.2 17.5 2.7 26 9.9 NE 22 35 12 19 1013.7 1013.5 0.0
20/02:30pm 23.5 18.0 4.0 28 9.6 NE 22 44 12 24 1014.7 1014.5 0.0
20/02:00pm 22.7 17.6 4.2 30 9.1 NNE 20 35 11 19 1015.2 1015.1 0.0
20/01:30pm 22.2 16.8 4.7 32 8.7 NE 22 37 12 20 1016.0 1015.9 0.0
20/01:00pm 21.5 16.5 4.6 33 8.3 NNE 20 32 11 17 1016.6 1016.5 0.0
20/12:30pm 21.0 15.4 5.4 36 7.8 NE 24 39 13 21 1017.2 1017.1 0.0
20/12:00pm 20.1 15.3 5.7 39 7.2 NE 20 37 11 20 1017.9 1017.8 0.0
20/11:30am 18.7 14.0 6.2 44 6.2 NNE 20 33 11 18 1018.6 1018.5 0.0
20/11:00am 17.5 13.1 6.4 48 5.5 NNE 19 33 10 18 1018.5 1018.4 0.0
20/10:30am 16.5 12.4 6.3 51 5.0 NE 17 28 9 15 1018.6 1018.5 0.0
20/10:00am 15.3 11.3 6.8 57 4.2 NE 17 28 9 15 1018.7 1018.6 0.0
20/09:30am 13.7 9.4 7.2 65 3.2 NE 19 30 10 16 1019.0 1018.9 0.0
20/09:00am 12.4 8.0 7.5 72 2.4 NE 20 32 11 17 1019.3 1019.2 0.0
20/08:30am 10.5 6.1 7.2 80 1.6 ENE 20 30 11 16 1019.0 1018.9 0.0
20/08:00am 9.2 4.9 7.0 86 1.0 E 19 26 10 14 1019.4 1019.3 0.0
20/07:30am 7.4 3.6 6.0 91 0.6 E 15 20 8 11 1019.8 1019.7 0.0
20/07:00am 6.6 1.8 5.4 92 0.5 E 20 24 11 13 1019.7 1019.6 0.0
20/06:30am 7.0 1.4 5.6 91 0.6 E 24 32 13 17 1019.3 1019.2 0.0
20/06:00am 7.0 2.2 5.6 91 0.6 E 20 24 11 13 1019.7 1019.6 0.0
20/05:30am 7.0 2.4 5.6 91 0.6 E 19 24 10 13 1019.8 1019.7 0.0
20/05:00am 6.8 2.2 5.4 91 0.6 E 19 22 10 12 1019.8 1019.7 0.0
20/04:30am 7.1 2.5 5.6 90 0.7 E 19 20 10 11 1019.7 1019.6 0.0
20/04:00am 7.6 2.9 5.9 89 0.8 E 20 24 11 13 1019.7 1019.6 0.0
20/03:30am 7.9 3.4 6.0 88 0.9 E 19 24 10 13 1019.9 1019.8 0.0
20/03:00am 8.1 3.4 6.2 88 0.9 E 20 24 11 13 1019.8 1019.7 0.0
20/02:30am 8.3 3.8 6.3 87 0.9 E 19 22 10 12 1020.4 1020.3 0.0
20/02:00am 8.9 4.5 6.7 86 1.0 E 19 24 10 13 1020.7 1020.5 0.0
20/01:30am 8.9 4.3 6.7 86 1.0 E 20 24 11 13 1021.1 1021.0 0.0
20/01:00am 9.7 4.8 6.8 82 1.4 E 22 28 12 15 1021.6 1021.5 0.0
20/12:30am 9.7 6.2 7.0 83 1.3 ESE 15 20 8 11 1022.3 1022.2 0.0
20/12:00am 9.8 5.8 6.5 80 1.5 ESE 17 19 9 10 1022.5 1022.4 0.0
 
Date/Time
EDT
Temp
°C
App
Temp
°C
Dew
Point
°C
Rel
Hum
%
Delta-T
°C
Wind Press
QNH
hPa
Press
MSL
hPa
Rain since
9am
mm
Dir  Spd
km/h
Gust
km/h
Spd
kts
Gust
kts
19/11:30pm 10.4 6.7 6.2 75 2.0 ESE 15 20 8 11 1022.5 1022.4 0.0
19/11:00pm 10.3 5.7 5.7 73 2.1 E 19 20 10 11 1022.0 1021.9 0.0
19/10:30pm 10.2 5.8 4.8 69 2.4 ESE 17 19 9 10 1022.6 1022.5 0.0
19/10:00pm 10.6 6.1 4.3 65 2.8 ESE 17 20 9 11 1022.2 1022.1 0.0
19/09:30pm 10.5 6.4 4.6 67 2.7 E 15 17 8 9 1022.0 1021.9 0.0
19/09:00pm 11.2 6.8 4.7 64 3.0 E 17 17 9 9 1021.8 1021.7 0.0
19/08:30pm 12.4 7.6 4.4 58 3.7 E 19 20 10 11 1021.3 1021.2 0.0
19/08:00pm 13.8 9.4 4.9 55 4.1 E 17 20 9 11 1021.1 1021.0 0.0
19/07:30pm 16.1 12.1 4.8 47 5.4 E 15 22 8 12 1020.9 1020.8 0.0
19/07:00pm 17.8 13.6 4.0 40 6.5 ESE 15 19 8 10 1021.4 1021.3 0.0
19/06:30pm 18.7 14.3 2.9 35 7.4 SE 15 22 8 12 1020.9 1020.8 0.0
19/06:00pm 19.1 15.6 3.3 35 7.4 E 11 20 6 11 1020.4 1020.3 0.0
19/05:30pm 19.1 15.0 2.5 33 7.7 ESE 13 22 7 12 1020.1 1020.0 0.0
19/05:00pm 19.6 14.9 3.3 34 7.7 S 17 28 9 15 1020.2 1020.1 0.0
19/04:30pm 19.0 13.9 3.2 35 7.4 SSE 19 30 10 16 1020.7 1020.5 0.0
19/04:00pm 19.4 16.5 4.7 38 7.1 SE 9 24 5 13 1020.9 1020.8 0.0
19/03:30pm 18.3 13.8 2.2 34 7.4 S 15 28 8 15 1021.1 1021.0 0.0
19/03:00pm 18.3 14.3 2.6 35 7.2 SE 13 22 7 12 1021.3 1021.2 0.0
19/02:30pm 18.3 14.2 4.5 40 6.6 S 15 22 8 12 1021.6 1021.5 0.0
19/02:00pm 17.3 13.2 2.1 36 6.9 SE 13 24 7 13 1021.9 1021.8 0.0
19/01:30pm 16.8 12.3 2.0 37 6.7 SSE 15 28 8 15 1022.1 1022.0 0.0
19/01:00pm 16.5 13.2 4.5 45 5.7 SE 11 22 6 12 1022.5 1022.4 0.0
19/12:30pm 15.6 12.4 4.9 49 5.1 SE 11 17 6 9 1022.6 1022.5 0.0
19/12:00pm 15.9 12.3 4.9 48 5.2 SSE 13 17 7 9 1022.8 1022.7 0.0
19/11:30am 14.8 10.5 5.1 52 4.6 SSE 17 26 9 14 1023.1 1023.0 0.0
19/11:00am 15.0 10.4 5.8 54 4.4 SE 19 28 10 15 1023.1 1023.0 0.0
19/10:30am 14.7 9.8 6.8 59 3.9 SE 22 28 12 15 1023.0 1022.9 0.0
19/10:00am 13.4 8.3 6.0 61 3.5 SSE 22 30 12 16 1023.1 1023.0 0.0
19/09:30am 12.2 7.8 7.5 73 2.3 SSE 20 26 11 14 1022.9 1022.8 0.0
19/09:00am 10.9 7.3 8.3 84 1.3 SSE 17 24 9 13 1022.9 1022.8 0.0
19/08:30am 8.8 6.2 7.6 92 0.6 SSE 11 17 6 9 1022.7 1022.6 0.0

Other formats

Comma delimited format used in spreadsheet applications
http://www.bom.gov.au/fwo/IDV60801/IDV60801.94827.axf

JavaScript Object Notation format (JSON) in row-major order
http://www.bom.gov.au/fwo/IDV60801/IDV60801.94827.json

Data quality

Most of these data are generated automatically and are frequently updated. Quality checks on data are not normally performed. It is possible for incorrect values to appear. Refer to information at About Latest Weather Observations and please check the disclaimer before using these data.